createdAt,value
2018-09-16T00:00:14.350Z,88.85
2018-09-16T00:01:24.258Z,88.67
2018-09-16T00:02:34.325Z,88.47
2018-09-16T00:03:44.140Z,88.95
2018-09-16T00:04:53.940Z,88.91
2018-09-16T00:06:05.954Z,88.43
2018-09-16T00:07:15.826Z,88.81
2018-09-16T00:08:25.629Z,88.91
2018-09-16T00:09:35.702Z,88.81
2018-09-16T00:10:45.787Z,87.95
2018-09-16T00:11:55.859Z,88.24
2018-09-16T00:13:05.664Z,88.33
2018-09-16T00:14:15.753Z,88.43
2018-09-16T00:15:25.932Z,88.33
2018-09-16T00:16:36.008Z,88.76
2018-09-16T00:17:46.851Z,88.38
2018-09-16T00:18:56.953Z,88.33
2018-09-16T00:20:06.759Z,88.33
2018-09-16T00:21:16.570Z,88.43
2018-09-16T00:22:26.732Z,88.53
2018-09-16T00:23:36.805Z,88.43
2018-09-16T00:24:46.618Z,88.43
2018-09-16T00:25:56.692Z,88.04
2018-09-16T00:27:06.763Z,88.24
2018-09-16T00:28:16.932Z,88.62
2018-09-16T00:29:26.548Z,88.91
2018-09-16T00:30:36.615Z,88.43
2018-09-16T00:31:46.685Z,89.01
2018-09-16T00:32:56.487Z,89.01
2018-09-16T00:34:06.299Z,88.81
2018-09-16T00:35:16.363Z,88.91
2018-09-16T00:36:26.428Z,88.91
2018-09-16T00:37:36.604Z,88.91
2018-09-16T00:38:46.683Z,88.43
2018-09-16T00:39:56.760Z,88.43
2018-09-16T00:41:06.704Z,88.91
2018-09-16T00:42:16.788Z,89.01
2018-09-16T00:43:26.866Z,88.91
2018-09-16T00:44:36.926Z,88.81
2018-09-16T00:45:46.747Z,88.71
2018-09-16T00:46:56.566Z,88.43
2018-09-16T00:48:08.583Z,89.01
2018-09-16T00:49:18.659Z,88.87
2018-09-16T00:50:28.724Z,88.77
2018-09-16T00:51:38.792Z,89.15
2018-09-16T00:52:48.889Z,88.77
2018-09-16T00:53:59.003Z,88.96
2018-09-16T00:55:08.816Z,88.77
2018-09-16T00:56:18.618Z,89.06
2018-09-16T00:57:28.696Z,88.87
2018-09-16T00:58:38.831Z,88.87
2018-09-16T00:59:48.907Z,88.96
2018-09-16T01:00:58.990Z,88.96
2018-09-16T01:02:09.065Z,88.87
2018-09-16T01:03:19.192Z,89.15
2018-09-16T01:04:29.284Z,88.48
2018-09-16T01:05:39.358Z,88.57
2018-09-16T01:06:49.169Z,88.57
2018-09-16T01:07:59.239Z,88.63
2018-09-16T01:09:09.060Z,88.82
2018-09-16T01:10:19.168Z,88.63
2018-09-16T01:11:29.489Z,88.82
2018-09-16T01:12:39.549Z,88.63
2018-09-16T01:13:49.607Z,88.92
2018-09-16T01:14:59.734Z,88.92
2018-09-16T01:16:10.672Z,88.39
2018-09-16T01:17:20.849Z,88.82
2018-09-16T01:18:30.929Z,88.63
2018-09-16T01:19:41.013Z,88.73
2018-09-16T01:20:50.824Z,88.53
2018-09-16T01:22:00.742Z,88.63
2018-09-16T01:23:10.809Z,88.73
2018-09-16T01:24:20.963Z,89.11
2018-09-16T01:25:31.035Z,88.73
2018-09-16T01:26:40.836Z,88.73
2018-09-16T01:27:50.638Z,88.53
2018-09-16T01:29:00.698Z,88.53
2018-09-16T01:30:10.766Z,88.82
2018-09-16T01:31:20.570Z,88.63
2018-09-16T01:32:30.647Z,88.59
2018-09-16T01:33:40.728Z,88.49
2018-09-16T01:34:50.543Z,88.68
2018-09-16T01:36:01.168Z,88.78
2018-09-16T01:37:10.972Z,88.78
2018-09-16T01:38:20.830Z,88.1
2018-09-16T01:39:30.939Z,88.2
2018-09-16T01:40:40.486Z,88.34
2018-09-16T01:41:50.540Z,88.44
2018-09-16T01:43:01.167Z,88.2
2018-09-16T01:48:57.720Z,88.34
2018-09-16T01:50:07.927Z,88.06
2018-09-16T01:51:17.785Z,88.24
2018-09-16T01:52:27.861Z,88.34
2018-09-16T01:53:37.978Z,88.24
2018-09-16T01:54:48.048Z,88.24
2018-09-16T01:55:58.101Z,88.15
2018-09-16T01:57:08.554Z,88.34
2018-09-16T01:58:18.699Z,88.06
2018-09-16T01:59:28.842Z,87.96
2018-09-16T02:00:38.708Z,87.76
2018-09-16T02:01:48.790Z,88.15
2018-09-16T02:02:58.607Z,88.06
2018-09-16T02:04:08.698Z,87.96
2018-09-16T02:05:18.807Z,88.34
2018-09-16T02:06:28.874Z,88.53
2018-09-16T02:07:38.945Z,88.34
2018-09-16T02:08:48.999Z,88.53
2018-09-16T02:09:59.066Z,88.57
2018-09-16T02:11:11.315Z,88.57
2018-09-16T02:12:21.384Z,88.34
2018-09-16T02:13:31.474Z,88.34
2018-09-16T02:14:41.301Z,88.29
2018-09-16T02:15:51.118Z,88.19
2018-09-16T02:17:00.786Z,88.29
2018-09-16T02:18:10.901Z,88.24
2018-09-16T02:19:20.971Z,88.29
2018-09-16T02:20:31.065Z,88.19
2018-09-16T02:21:41.132Z,88.39
2018-09-16T02:22:50.980Z,88.19
2018-09-16T02:24:01.890Z,88.29
2018-09-16T02:25:11.955Z,88.39
2018-09-16T02:26:21.540Z,88.29
2018-09-16T02:27:31.361Z,88.44
2018-09-16T02:28:41.479Z,88.15
2018-09-16T02:29:51.554Z,88.15
2018-09-16T02:31:01.889Z,88.44
2018-09-16T02:32:11.994Z,88.73
2018-09-16T02:33:21.837Z,88.73
2018-09-16T02:34:31.632Z,88.82
2018-09-16T02:35:41.451Z,88.63
2018-09-16T02:36:51.515Z,88.73
2018-09-16T02:38:03.213Z,88.53
2018-09-16T02:39:13.317Z,88.53
2018-09-16T02:40:23.466Z,88.53
2018-09-16T02:41:33.540Z,88.59
2018-09-16T02:42:43.655Z,88.53
2018-09-16T02:43:53.779Z,88.49
2018-09-16T02:45:03.883Z,88.53
2018-09-16T02:46:13.961Z,88.68
2018-09-16T02:47:23.804Z,88.82
2018-09-16T02:48:33.865Z,88.59
2018-09-16T02:49:43.952Z,88.78
2018-09-16T02:50:54.024Z,88.87
2018-09-16T02:52:04.401Z,88.78
2018-09-16T02:53:14.480Z,88.2
2018-09-16T02:54:24.290Z,88.1
2018-09-16T02:55:34.089Z,88.3
2018-09-16T02:56:44.155Z,88.3
2018-09-16T02:57:54.096Z,88.1
2018-09-16T02:59:05.733Z,88.44
2018-09-16T03:00:15.561Z,88.3
2018-09-16T03:01:25.623Z,88.34
2018-09-16T03:02:35.439Z,88.15
2018-09-16T03:34:40.044Z,82.85
2018-09-16T03:35:50.125Z,82.85
2018-09-16T03:37:01.345Z,84
2018-09-16T03:38:11.439Z,84.67
2018-09-16T03:39:21.510Z,85.25
2018-09-16T03:40:31.588Z,85.34
2018-09-16T03:41:41.138Z,86.4
2018-09-16T03:42:50.945Z,86.49
2018-09-16T03:44:01.432Z,86.49
2018-09-16T03:45:11.513Z,87.3
2018-09-16T03:46:21.644Z,87.3
2018-09-16T03:47:31.777Z,87.98
2018-09-16T03:48:41.948Z,88.07
2018-09-16T03:49:52.019Z,87.98
2018-09-16T03:51:02.384Z,88.26
2018-09-16T03:52:12.558Z,88.31
2018-09-16T03:53:22.111Z,88.02
2018-09-16T03:54:32.191Z,88.31
2018-09-16T03:55:42.349Z,88.02
2018-09-16T03:56:52.159Z,88.69
2018-09-16T03:58:02.018Z,88.49
2018-09-16T03:59:12.141Z,88.69
2018-09-16T04:00:22.251Z,88.21
2018-09-16T04:01:32.072Z,88.69
2018-09-16T04:02:42.151Z,88.45
2018-09-16T04:03:52.271Z,88.4
2018-09-16T04:05:02.357Z,88.83
2018-09-16T04:06:12.443Z,88.49
2018-09-16T04:07:22.522Z,88.79
2018-09-16T04:08:32.605Z,88.79
2018-09-16T04:09:42.682Z,88.69
2018-09-16T04:10:52.749Z,88.98
2018-09-16T04:12:02.814Z,88.88
2018-09-16T04:13:12.889Z,88.69
2018-09-16T04:14:22.194Z,88.69
2018-09-16T04:15:32.310Z,88.79
2018-09-16T04:16:42.397Z,88.69
2018-09-16T04:17:52.204Z,88.79
2018-09-16T04:19:02.276Z,88.69
2018-09-16T04:20:12.369Z,88.69
2018-09-16T04:21:22.221Z,88.98
2018-09-16T04:22:32.312Z,88.31
2018-09-16T04:23:42.400Z,88.59
2018-09-16T04:24:52.491Z,88.49
2018-09-16T04:26:02.554Z,88.69
2018-09-16T04:27:12.666Z,88.64
2018-09-16T04:28:22.862Z,88.45
2018-09-16T04:29:32.947Z,88.49
2018-09-16T04:30:43.022Z,88.4
2018-09-16T04:31:53.103Z,88.45
2018-09-16T04:33:06.331Z,88.4
2018-09-16T04:34:15.888Z,88.4
2018-09-16T04:35:25.971Z,88.49
2018-09-16T04:36:35.789Z,88.4
2018-09-16T04:37:45.872Z,88.49
2018-09-16T04:38:55.737Z,88.49
2018-09-16T04:40:05.831Z,88.49
2018-09-16T04:41:15.954Z,88.69
2018-09-16T04:42:26.009Z,88.4
2018-09-16T04:43:35.558Z,88.16
2018-09-16T04:44:45.458Z,88.16
2018-09-16T04:45:55.310Z,88.02
2018-09-16T04:47:05.386Z,87.87
2018-09-16T04:48:15.471Z,88.25
2018-09-16T04:49:25.549Z,88.16
2018-09-16T04:50:35.434Z,88.25
2018-09-16T04:51:45.540Z,88.25
2018-09-16T04:52:55.624Z,87.87
2018-09-16T04:54:05.797Z,88.35
2018-09-16T04:55:15.867Z,88.45
2018-09-16T04:56:26.046Z,87.96
2018-09-16T04:57:35.592Z,87.87
2018-09-16T04:58:45.667Z,87.87
2018-09-16T04:59:55.723Z,87.77
2018-09-16T05:01:08.596Z,87.77
2018-09-16T05:02:19.293Z,87.96
2018-09-16T05:03:29.368Z,87.77
2018-09-16T05:04:39.171Z,87.87
2018-09-16T05:05:49.257Z,87.39
2018-09-16T05:06:59.073Z,87.49
2018-09-16T05:08:09.991Z,88.06
2018-09-16T05:09:20.064Z,87.62
2018-09-16T05:10:30.013Z,87.53
2018-09-16T05:11:40.117Z,87.82
2018-09-16T05:12:50.198Z,87.53
2018-09-16T05:14:00.069Z,87.34
2018-09-16T05:15:10.150Z,87.24
2018-09-16T05:16:19.977Z,87.24
2018-09-16T05:17:29.788Z,87.34
2018-09-16T05:18:39.857Z,87.43
2018-09-16T05:19:49.697Z,87.29
2018-09-16T05:20:59.780Z,87.19
2018-09-16T05:22:09.846Z,86.9
2018-09-16T05:23:19.958Z,86.8
2018-09-16T05:24:30.015Z,86.9
2018-09-16T05:25:40.146Z,86.99
2018-09-16T05:26:49.958Z,86.99
2018-09-16T05:27:59.775Z,86.71
2018-09-16T05:29:09.848Z,87.52
2018-09-16T05:30:19.933Z,86.8
2018-09-16T05:31:30.275Z,86.75
2018-09-16T05:32:40.527Z,86.85
2018-09-16T05:33:50.698Z,86.94
2018-09-16T05:35:00.370Z,86.85
2018-09-16T05:36:10.485Z,87.71
2018-09-16T05:37:20.617Z,86.75
2018-09-16T05:38:30.738Z,86.85
2018-09-16T05:39:40.823Z,86.94
2018-09-16T05:40:50.895Z,86.94
2018-09-16T05:42:01.032Z,87.13
2018-09-16T05:43:11.149Z,87.23
2018-09-16T05:44:21.144Z,87.13
2018-09-16T05:45:31.230Z,86.46
2018-09-16T05:46:41.433Z,86.99
2018-09-16T05:47:51.296Z,86.99
2018-09-16T05:49:01.369Z,86.89
2018-09-16T05:50:11.163Z,86.6
2018-09-16T05:51:21.257Z,87.27
2018-09-16T05:52:31.049Z,86.89
2018-09-16T05:53:41.358Z,86.89
2018-09-16T05:54:51.450Z,87.18
2018-09-16T05:56:01.523Z,87.08
2018-09-16T05:57:11.588Z,86.79
2018-09-16T05:58:21.656Z,86.99
2018-09-16T05:59:31.717Z,87.08
2018-09-16T06:00:41.815Z,86.89
2018-09-16T06:01:51.614Z,86.99
2018-09-16T06:03:01.423Z,86.89
2018-09-16T06:04:11.489Z,87.18
2018-09-16T06:05:21.580Z,86.99
2018-09-16T06:06:31.398Z,86.6
2018-09-16T06:07:41.489Z,86.51
2018-09-16T06:08:51.584Z,86.74
2018-09-16T06:10:01.677Z,86.55
2018-09-16T06:11:11.508Z,86.16
2018-09-16T06:12:21.639Z,85.78
2018-09-16T06:13:31.726Z,86.01
2018-09-16T06:14:41.814Z,86.11
2018-09-16T06:15:51.895Z,85.82
2018-09-16T06:17:01.721Z,85.47
2018-09-16T06:18:11.777Z,85.47
2018-09-16T06:19:21.862Z,85.38
2018-09-16T06:20:31.987Z,85.47
2018-09-16T06:21:41.799Z,85.03
2018-09-16T06:22:52.105Z,85.13
2018-09-16T06:24:02.755Z,85.42
2018-09-16T06:25:12.851Z,85.23
2018-09-16T06:26:22.683Z,85.52
2018-09-16T06:27:32.796Z,85.52
2018-09-16T06:28:42.964Z,85.61
2018-09-16T06:29:52.784Z,85.71
2018-09-16T06:31:03.464Z,85.61
2018-09-16T06:32:13.292Z,85.46
2018-09-16T06:33:23.375Z,85.56
2018-09-16T06:34:33.590Z,85.85
2018-09-16T06:35:43.413Z,85.94
2018-09-16T06:36:53.487Z,86.04
2018-09-16T06:38:05.763Z,85.94
2018-09-16T06:39:15.594Z,86.04
2018-09-16T06:40:25.209Z,86.24
2018-09-16T06:41:35.280Z,85.75
2018-09-16T06:42:45.644Z,86.43
2018-09-16T06:43:55.708Z,86.33
2018-09-16T06:45:05.790Z,86.24
2018-09-16T06:46:15.651Z,86.24
2018-09-16T06:47:25.512Z,86.24
2018-09-16T06:48:35.574Z,86.24
2018-09-16T06:49:45.657Z,86.14
2018-09-16T06:50:55.648Z,86.33
2018-09-16T06:52:05.819Z,86.14
2018-09-16T06:53:15.970Z,85.94
2018-09-16T06:54:26.040Z,86.04
2018-09-16T06:55:36.235Z,86.14
2018-09-16T06:56:46.369Z,86.14
2018-09-16T06:57:56.462Z,86.14
2018-09-16T06:59:08.507Z,85.94
2018-09-16T07:00:18.394Z,86.14
2018-09-16T07:01:27.978Z,86.14
2018-09-16T07:02:38.075Z,86.14
2018-09-16T07:03:47.900Z,85.94
2018-09-16T07:04:57.768Z,86.14
2018-09-16T07:06:08.028Z,86.14
2018-09-16T07:07:18.102Z,86.24
2018-09-16T07:08:28.441Z,86.24
2018-09-16T07:09:38.752Z,86.14
2018-09-16T07:10:48.954Z,86.38
2018-09-16T07:11:58.766Z,86.43
2018-09-16T07:13:08.835Z,86.18
2018-09-16T07:14:19.055Z,86.28
2018-09-16T07:15:29.112Z,86.28
2018-09-16T07:16:39.229Z,85.89
2018-09-16T07:17:49.312Z,85.89
2018-09-16T07:18:59.385Z,86.08
2018-09-16T07:20:08.999Z,85.89
2018-09-16T07:21:19.360Z,85.89
2018-09-16T07:22:29.495Z,85.8
2018-09-16T07:23:39.323Z,85.6
2018-09-16T07:24:49.132Z,85.6
2018-09-16T07:25:58.973Z,85.41
2018-09-16T07:27:09.100Z,85.55
2018-09-16T07:28:19.124Z,85.41
2018-09-16T07:29:29.207Z,85.64
2018-09-16T07:30:39.272Z,84.88
2018-09-16T07:31:49.354Z,85.21
2018-09-16T07:32:59.445Z,85.3
2018-09-16T07:34:09.768Z,84.53
2018-09-16T07:35:20.197Z,84.33
2018-09-16T07:36:29.788Z,84.24
2018-09-16T07:37:39.882Z,84.38
2018-09-16T07:38:49.691Z,84.38
2018-09-16T07:39:59.577Z,84.42
2018-09-16T07:41:08.899Z,84.32
2018-09-16T07:42:18.987Z,84.52
2018-09-16T07:43:29.083Z,83.74
2018-09-16T07:44:39.151Z,84.36
2018-09-16T07:45:49.263Z,83.49
2018-09-16T07:46:59.377Z,83.2
2018-09-16T07:48:09.017Z,83.25
2018-09-16T07:49:19.134Z,83.73
2018-09-16T07:50:29.227Z,83.28
2018-09-16T07:51:38.988Z,82.9
2018-09-16T07:52:49.164Z,83.23
2018-09-16T07:53:59.188Z,83.33
2018-09-16T07:55:08.762Z,83.33
2018-09-16T07:56:18.578Z,83.62
2018-09-16T07:57:28.673Z,84.1
2018-09-16T07:58:38.826Z,83.62
2018-09-16T07:59:48.921Z,84.06
2018-09-16T08:00:59.017Z,84.64
2018-09-16T08:02:09.082Z,84.93
2018-09-16T08:03:18.953Z,84.93
2018-09-16T08:04:28.805Z,84.64
2018-09-16T08:05:38.761Z,84.64
2018-09-16T08:06:49.190Z,84.55
2018-09-16T08:07:59.313Z,84.45
2018-09-16T08:09:08.920Z,84.25
2018-09-16T08:10:18.770Z,84.1
2018-09-16T08:11:28.872Z,83.72
2018-09-16T08:12:38.694Z,83.23
2018-09-16T08:13:49.165Z,83.62
2018-09-16T08:14:59.290Z,83.47
2018-09-16T08:16:09.409Z,84.05
2018-09-16T08:17:19.393Z,83.56
2018-09-16T08:18:29.229Z,82.88
2018-09-16T08:19:39.335Z,82.98
2018-09-16T08:20:49.561Z,83.12
2018-09-16T08:21:59.642Z,83.31
2018-09-16T08:23:09.449Z,83.47
2018-09-16T08:24:19.526Z,83.56
2018-09-16T08:25:29.598Z,83.95
2018-09-16T08:26:39.742Z,83.75
2018-09-16T08:27:49.864Z,83.56
2018-09-16T08:28:59.986Z,83.47
2018-09-16T08:30:10.085Z,83.27
2018-09-16T08:31:20.156Z,83.47
2018-09-16T08:32:29.989Z,83.27
2018-09-16T08:33:40.090Z,83.89
2018-09-16T08:34:50.184Z,83.31
2018-09-16T08:36:00.470Z,83.06
2018-09-16T08:37:10.539Z,82.62
2018-09-16T08:38:20.389Z,82.62
2018-09-16T08:39:30.488Z,82.52
2018-09-16T08:40:40.588Z,82.07
2018-09-16T08:41:50.675Z,82.65
2018-09-16T08:43:00.496Z,82.79
2018-09-16T08:44:10.322Z,82.7
2018-09-16T08:45:20.389Z,82.79
2018-09-16T08:46:30.579Z,82.11
2018-09-16T08:47:40.682Z,82.6
2018-09-16T08:48:50.519Z,82.45
2018-09-16T08:50:03.276Z,82.25
2018-09-16T08:51:13.377Z,82.45
2018-09-16T08:52:23.657Z,83.12
2018-09-16T08:53:33.737Z,82.87
2018-09-16T08:54:43.839Z,82.87
2018-09-16T08:55:53.940Z,82.39
2018-09-16T08:57:04.065Z,82.58
2018-09-16T08:58:14.395Z,82.23
2018-09-16T08:59:24.886Z,82.23
2018-09-16T09:00:35.003Z,82.28
2018-09-16T09:01:45.179Z,82.14
2018-09-16T09:02:55.269Z,82.28
2018-09-16T09:04:05.383Z,83.01
2018-09-16T09:05:15.247Z,82.72
2018-09-16T09:06:25.099Z,82.58
2018-09-16T09:07:34.874Z,82.82
2018-09-16T09:08:44.453Z,82.62
2018-09-16T09:09:54.321Z,82.62
2018-09-16T09:11:04.147Z,82.72
2018-09-16T09:12:14.262Z,82.43
2018-09-16T09:13:24.399Z,83.21
2018-09-16T09:14:34.525Z,82.92
2018-09-16T09:15:44.599Z,82.82
2018-09-16T09:16:54.796Z,82.92
2018-09-16T09:18:05.527Z,82.53
2018-09-16T09:19:15.712Z,82.62
2018-09-16T09:20:25.564Z,82.92
2018-09-16T09:21:35.657Z,83.07
2018-09-16T09:22:45.768Z,83.65
2018-09-16T09:24:15.522Z,83.36
2018-09-16T09:25:25.736Z,82.62
2018-09-16T09:26:35.846Z,82.67
2018-09-16T09:27:45.963Z,82.18
2018-09-16T09:28:55.897Z,82.18
2018-09-16T09:30:05.942Z,82.28
2018-09-16T09:31:15.810Z,81.83
2018-09-16T09:32:25.905Z,81.83
2018-09-16T09:33:35.742Z,81.67
2018-09-16T09:34:45.836Z,81.87
2018-09-16T09:35:56.009Z,81.48
2018-09-16T09:37:06.143Z,81.96
2018-09-16T09:38:16.240Z,81.38
2018-09-16T09:39:25.796Z,81.87
2018-09-16T09:40:35.901Z,81.62
2018-09-16T09:41:45.713Z,81.23
2018-09-16T09:42:56.115Z,81.32
2018-09-16T09:44:05.984Z,81.26
2018-09-16T09:45:16.089Z,81.17
2018-09-16T09:46:26.199Z,80.88
2018-09-16T09:47:36.347Z,81.26
2018-09-16T09:48:46.212Z,81.95
2018-09-16T09:49:56.326Z,81.75
2018-09-16T09:51:06.704Z,81.71
2018-09-16T09:52:16.709Z,81.81
2018-09-16T09:53:26.984Z,81.75
2018-09-16T09:54:37.432Z,81.65
2018-09-16T09:55:46.995Z,81.46
2018-09-16T09:56:57.103Z,81.56
2018-09-16T09:58:07.202Z,80.91
2018-09-16T09:59:17.193Z,80.88
2018-09-16T10:00:27.720Z,81.01
2018-09-16T10:01:37.840Z,81.11
2018-09-16T10:02:47.667Z,81.11
2018-09-16T10:03:57.504Z,80.82
2018-09-16T10:05:07.600Z,81.01
2018-09-16T10:06:17.398Z,81.11
2018-09-16T10:07:27.208Z,81.11
2018-09-16T10:08:37.296Z,81.79
2018-09-16T10:09:47.384Z,82.09
2018-09-16T10:10:57.679Z,81.85
2018-09-16T10:12:07.520Z,81.95
2018-09-16T10:13:17.652Z,81.75
2018-09-16T10:14:27.866Z,82.43
2018-09-16T10:15:38.407Z,82.4
2018-09-16T10:16:48.300Z,82.59
2018-09-16T10:17:58.410Z,83.08
2018-09-16T10:19:08.526Z,83.04
2018-09-16T10:20:18.676Z,82.65
2018-09-16T10:21:28.785Z,82.75
2018-09-16T10:22:39.038Z,82.94
2018-09-16T10:23:49.964Z,82.55
2018-09-16T10:25:00.144Z,82.01
2018-09-16T10:26:10.039Z,81.62
2018-09-16T10:27:20.135Z,81.46
2018-09-16T10:28:30.345Z,81.07
2018-09-16T10:29:40.452Z,81.3
2018-09-16T10:30:55.739Z,81.01
2018-09-16T10:32:10.960Z,81.65
2018-09-16T10:33:21.095Z,82.04
2018-09-16T10:34:45.559Z,81.85
2018-09-16T10:35:55.661Z,82.43
2018-09-16T10:37:08.350Z,82.79
2018-09-16T10:38:18.555Z,82.98
2018-09-16T10:39:28.858Z,83.14
2018-09-16T10:40:39.009Z,83.23
2018-09-16T10:41:49.096Z,83.68
2018-09-16T10:42:59.175Z,83.87
2018-09-16T10:44:09.105Z,84.32
2018-09-16T10:45:18.919Z,83.83
2018-09-16T10:46:29.061Z,84.18
2018-09-16T10:47:39.175Z,84.08
2018-09-16T10:48:49.278Z,83.75
2018-09-16T10:49:59.185Z,84.23
2018-09-16T10:51:09.987Z,84.23
2018-09-16T10:52:19.847Z,83.95
2018-09-16T10:53:29.526Z,84.39
2018-09-16T10:54:39.368Z,84.58
2018-09-16T10:55:49.182Z,84.97
2018-09-16T10:56:58.994Z,84.78
2018-09-16T10:58:09.100Z,84.93
2018-09-16T10:59:18.930Z,84.55
2018-09-16T11:00:29.054Z,84.55
2018-09-16T11:01:39.187Z,84.25
2018-09-16T11:02:49.013Z,83.76
2018-09-16T11:03:59.097Z,84.2
2018-09-16T11:05:09.195Z,84
2018-09-16T11:06:19.280Z,83.81
2018-09-16T11:07:28.863Z,83.95
2018-09-16T11:08:38.950Z,83.32
2018-09-16T11:09:48.932Z,83.46
2018-09-16T11:10:58.353Z,83.46
2018-09-16T11:12:08.506Z,83.56
2018-09-16T11:13:18.622Z,83.95
2018-09-16T11:14:28.480Z,82.87
2018-09-16T11:15:38.594Z,83.31
2018-09-16T11:16:48.497Z,83.31
2018-09-16T11:17:58.590Z,83.31
2018-09-16T11:19:08.677Z,83.31
2018-09-16T11:20:18.786Z,83.31
2018-09-16T11:21:28.362Z,82.76
2018-09-16T11:22:38.465Z,82.57
2018-09-16T11:23:48.563Z,82.7
2018-09-16T11:24:58.657Z,82.12
2018-09-16T11:26:10.757Z,82.06
2018-09-16T11:27:20.874Z,82.26
2018-09-16T11:28:30.974Z,82.35
2018-09-16T11:29:40.819Z,82.16
2018-09-16T11:30:50.887Z,81.91
2018-09-16T11:32:00.978Z,81.81
2018-09-16T11:33:11.100Z,82.3
2018-09-16T11:34:21.203Z,82.3
2018-09-16T11:35:31.179Z,82.59
2018-09-16T11:36:41.622Z,82.5
2018-09-16T11:37:51.761Z,82.79
2018-09-16T11:39:03.589Z,82.79
2018-09-16T11:40:13.693Z,82.79
2018-09-16T11:41:23.786Z,82.69
2018-09-16T11:42:33.889Z,82.59
2018-09-16T11:43:43.997Z,82.63
2018-09-16T11:44:54.196Z,83.22
2018-09-16T11:46:04.496Z,82.73
2018-09-16T11:47:14.594Z,82.34
2018-09-16T11:48:24.659Z,82.82
2018-09-16T11:49:34.490Z,83.06
2018-09-16T11:50:44.784Z,82.97
2018-09-16T11:51:54.374Z,82.87
2018-09-16T11:53:04.504Z,82.92
2018-09-16T11:54:14.585Z,82.92
2018-09-16T11:55:24.414Z,83.31
2018-09-16T11:56:34.304Z,83.02
2018-09-16T11:57:44.375Z,82.92
2018-09-16T11:58:54.480Z,82.73
2018-09-16T12:00:06.213Z,82.73
2018-09-16T12:01:16.318Z,83.02
2018-09-16T12:02:26.399Z,82.87
2018-09-16T12:03:36.497Z,83.22
2018-09-16T12:04:46.353Z,83.27
2018-09-16T12:05:56.463Z,83.66
2018-09-16T12:07:06.558Z,83.12
2018-09-16T12:08:16.710Z,82.82
2018-09-16T12:09:26.820Z,82.18
2018-09-16T12:10:36.912Z,81.84
2018-09-16T12:11:47.012Z,80.86
2018-09-16T12:12:57.122Z,81.13
2018-09-16T12:14:07.000Z,81.03
2018-09-16T12:15:16.561Z,80.58
2018-09-16T12:16:26.646Z,80.62
2018-09-16T12:17:36.224Z,81.11
2018-09-16T12:18:46.334Z,81.07
2018-09-16T12:19:56.159Z,81.72
2018-09-16T12:21:06.260Z,83.24
2018-09-16T12:22:16.349Z,82.91
2018-09-16T12:23:26.175Z,83.06
2018-09-16T12:24:36.311Z,83.8
2018-09-16T12:25:46.421Z,84.64
2018-09-16T12:26:56.509Z,83.72
2018-09-16T12:28:08.089Z,83.72
2018-09-16T12:29:18.205Z,84.11
2018-09-16T12:30:28.324Z,83.87
2018-09-16T12:31:38.440Z,84.27
2018-09-16T12:32:48.531Z,84.27
2018-09-16T12:33:58.629Z,83.97
2018-09-16T12:35:08.879Z,83.97
2018-09-16T12:36:19.032Z,83.97
2018-09-16T12:37:29.114Z,83.68
2018-09-16T12:38:39.215Z,83.87
2018-09-16T12:39:49.350Z,83.58
2018-09-16T12:40:59.430Z,84.27
2018-09-16T12:42:09.550Z,84.36
2018-09-16T12:43:19.641Z,83.93
2018-09-16T12:44:29.737Z,83.93
2018-09-16T12:45:39.846Z,83.89
2018-09-16T12:46:49.995Z,84.28
2018-09-16T12:48:00.091Z,83.83
2018-09-16T12:49:10.244Z,83.83
2018-09-16T12:50:20.418Z,83.98
2018-09-16T12:51:30.528Z,84.18
2018-09-16T12:52:40.614Z,84.08
2018-09-16T12:53:50.778Z,84.08
2018-09-16T12:55:00.873Z,83.89
2018-09-16T12:56:11.071Z,84.28
2018-09-16T12:57:20.911Z,84.28
2018-09-16T12:58:30.758Z,83.69
2018-09-16T12:59:40.604Z,83.89
2018-09-16T13:00:50.738Z,83.98
2018-09-16T13:02:00.938Z,83.69
2018-09-16T13:03:10.791Z,84.18
2018-09-16T13:04:20.963Z,83.89
2018-09-16T13:05:31.636Z,84.08
2018-09-16T13:06:41.506Z,83.89
2018-09-16T13:07:51.690Z,83.95
2018-09-16T13:09:01.809Z,83.85
2018-09-16T13:10:11.900Z,84.14
2018-09-16T13:11:22.023Z,84.14
2018-09-16T13:12:32.130Z,84.23
2018-09-16T13:13:42.481Z,84.14
2018-09-16T13:14:52.798Z,84.05
2018-09-16T13:16:02.910Z,84.33
2018-09-16T13:17:13.009Z,84.43
2018-09-16T13:18:23.163Z,84.33
2018-09-16T13:19:33.343Z,83.95
2018-09-16T13:20:43.455Z,84.63
2018-09-16T13:21:53.288Z,83.95
2018-09-16T13:23:05.118Z,84.33
2018-09-16T13:24:14.944Z,84.63
2018-09-16T13:25:24.785Z,84.48
2018-09-16T13:26:34.622Z,84.39
2018-09-16T13:27:44.711Z,84.58
2018-09-16T13:28:55.004Z,84.48
2018-09-16T13:30:05.108Z,84.82
2018-09-16T13:31:15.202Z,84.43
2018-09-16T13:32:25.313Z,84.48
2018-09-16T13:33:35.417Z,84.43
2018-09-16T13:34:45.517Z,84.53
2018-09-16T13:35:55.680Z,84.82
2018-09-16T13:37:05.827Z,84.63
2018-09-16T13:38:15.695Z,84.43
2018-09-16T13:39:26.119Z,84.1
2018-09-16T13:40:36.252Z,84.48
2018-09-16T13:41:46.355Z,84.39
2018-09-16T13:42:56.529Z,84.58
2018-09-16T13:44:06.848Z,84.48
2018-09-16T13:45:17.199Z,84.39
2018-09-16T13:46:27.303Z,84.39
2018-09-16T13:47:37.406Z,84.33
2018-09-16T13:48:47.370Z,84
2018-09-16T13:49:57.480Z,84.1
2018-09-16T13:51:07.125Z,84.39
2018-09-16T13:52:17.366Z,84.2
2018-09-16T13:53:27.486Z,84.23
2018-09-16T13:54:37.853Z,84.2
2018-09-16T13:55:47.971Z,84.23
2018-09-16T13:56:58.085Z,84.1
2018-09-16T13:58:09.026Z,84.39
2018-09-16T13:59:19.134Z,84.97
2018-09-16T14:00:28.965Z,84.97
2018-09-16T14:01:38.542Z,85.07
2018-09-16T14:02:48.746Z,84.78
2018-09-16T14:03:58.870Z,84.48
2018-09-16T14:05:08.766Z,84.48
2018-09-16T14:06:18.899Z,85.17
2018-09-16T14:07:28.481Z,85.27
2018-09-16T14:08:38.687Z,85.07
2018-09-16T14:09:48.532Z,84.83
2018-09-16T14:10:58.694Z,85.22
2018-09-16T14:12:08.846Z,85.61
2018-09-16T14:13:18.970Z,85.81
2018-09-16T14:14:28.821Z,85.32
2018-09-16T14:15:38.939Z,85.22
2018-09-16T14:16:49.048Z,85.13
2018-09-16T14:17:59.235Z,85.22
2018-09-16T14:19:10.399Z,85.13
2018-09-16T14:20:20.495Z,85.03
2018-09-16T14:21:30.619Z,85.13
2018-09-16T14:22:40.715Z,85.22
2018-09-16T14:23:50.615Z,85.22
2018-09-16T14:25:00.448Z,85.13
2018-09-16T14:26:10.282Z,84.74
2018-09-16T14:27:20.366Z,84.93
2018-09-16T14:28:30.501Z,85.22
2018-09-16T14:29:40.670Z,85.13
2018-09-16T14:30:50.260Z,84.83
2018-09-16T14:32:00.381Z,85.03
2018-09-16T14:33:10.511Z,85.9
2018-09-16T14:34:20.617Z,85.57
2018-09-16T14:35:31.064Z,85.47
2018-09-16T14:36:41.389Z,85.22
2018-09-16T14:37:51.522Z,85.32
2018-09-16T14:39:01.613Z,84.83
2018-09-16T14:40:11.726Z,84.83
2018-09-16T14:41:21.806Z,84.83
2018-09-16T14:42:31.895Z,84.93
2018-09-16T14:43:41.996Z,85.13
2018-09-16T14:44:52.089Z,85.22
2018-09-16T14:46:02.974Z,85.77
2018-09-16T14:47:12.851Z,85.18
2018-09-16T14:48:22.673Z,85.96
2018-09-16T14:49:32.513Z,85.47
2018-09-16T14:50:42.609Z,85.38
2018-09-16T14:51:52.713Z,85.77
2018-09-16T14:53:02.854Z,85.86
2018-09-16T14:54:12.950Z,85.57
2018-09-16T14:55:23.074Z,85.86
2018-09-16T14:56:33.177Z,85.38
2018-09-16T14:57:43.306Z,85.18
2018-09-16T14:58:53.129Z,85.82
2018-09-16T15:00:04.214Z,85.92
2018-09-16T15:01:14.417Z,85.82
2018-09-16T15:02:24.553Z,85.92
2018-09-16T15:03:34.679Z,85.92
2018-09-16T15:04:44.514Z,85.72
2018-09-16T15:05:54.640Z,86.01
2018-09-16T15:07:04.723Z,86.35
2018-09-16T15:08:14.827Z,86.3
2018-09-16T15:09:24.659Z,86.11
2018-09-16T15:10:35.562Z,86.01
2018-09-16T15:11:45.669Z,86.3
2018-09-16T15:12:55.753Z,85.92
2018-09-16T15:14:05.882Z,86.01
2018-09-16T15:15:15.979Z,85.92
2018-09-16T15:16:26.061Z,86.11
2018-09-16T15:17:36.157Z,86.26
2018-09-16T15:18:46.257Z,86.26
2018-09-16T15:19:56.352Z,86.26
2018-09-16T15:21:06.656Z,86.5
2018-09-16T15:22:17.091Z,86.11
2018-09-16T15:23:26.995Z,86.26
2018-09-16T15:24:37.126Z,86.16
2018-09-16T15:25:47.017Z,86.3
2018-09-16T15:26:57.288Z,86.36
2018-09-16T15:28:07.861Z,86.55
2018-09-16T15:29:17.694Z,86.55
2018-09-16T15:30:27.807Z,86.46
2018-09-16T15:31:37.891Z,86.65
2018-09-16T15:32:47.965Z,86.65
2018-09-16T15:33:58.094Z,86.65
2018-09-16T15:35:09.182Z,86.65
2018-09-16T15:36:19.516Z,86.65
2018-09-16T15:37:29.093Z,86.94
2018-09-16T15:38:39.268Z,86.65
2018-09-16T15:39:49.339Z,86.85
2018-09-16T15:40:59.413Z,86.71